createdAt,value
2023-03-18T00:01:16.334Z,4.22
2023-03-18T00:03:43.101Z,4.07
2023-03-18T00:06:18.746Z,4.13
2023-03-18T00:08:47.335Z,3.95
2023-03-18T00:11:15.971Z,3.83
2023-03-18T00:13:42.882Z,3.80
2023-03-18T00:16:11.603Z,4.07
2023-03-18T00:18:40.378Z,3.90
2023-03-18T00:21:07.166Z,4.15
2023-03-18T00:23:34.615Z,4.75
2023-03-18T00:26:05.228Z,4.00
2023-03-18T00:28:32.750Z,4.03
2023-03-18T00:31:08.623Z,4.20
2023-03-18T00:33:38.129Z,3.78
2023-03-18T00:36:06.504Z,4.43
2023-03-18T00:38:33.714Z,3.58
2023-03-18T00:41:15.930Z,3.92
2023-03-18T00:43:54.816Z,3.67
2023-03-18T00:46:30.940Z,3.97
2023-03-18T00:49:00.429Z,3.58
2023-03-18T00:51:29.712Z,4.50
2023-03-18T00:53:59.434Z,4.45
2023-03-18T00:56:28.579Z,4.55
2023-03-18T00:58:55.297Z,4.93
2023-03-18T01:01:23.245Z,4.40
2023-03-18T01:03:50.484Z,4.47
2023-03-18T01:06:23.937Z,4.38
2023-03-18T01:08:51.724Z,4.40
2023-03-18T01:11:18.797Z,4.38
2023-03-18T01:13:46.142Z,4.32
2023-03-18T01:16:13.495Z,4.20
2023-03-18T01:18:41.525Z,4.47
2023-03-18T01:21:10.252Z,3.88
2023-03-18T01:23:38.030Z,4.80
2023-03-18T01:26:06.299Z,4.53
2023-03-18T01:28:33.940Z,4.28
2023-03-18T01:31:01.754Z,3.88
2023-03-18T01:33:29.860Z,4.35
2023-03-18T01:36:00.350Z,4.00
2023-03-18T01:38:31.608Z,4.63
2023-03-18T01:41:00.327Z,4.07
2023-03-18T01:43:35.991Z,4.28
2023-03-18T01:46:29.026Z,4.63
2023-03-18T01:48:56.730Z,4.07
2023-03-18T01:51:26.772Z,4.70
2023-03-18T01:53:54.532Z,3.95
2023-03-18T01:56:22.193Z,4.28
2023-03-18T01:58:52.266Z,4.25
2023-03-18T02:01:26.467Z,4.18
2023-03-18T02:03:55.383Z,3.75
2023-03-18T02:06:22.804Z,3.72
2023-03-18T02:08:49.728Z,3.45
2023-03-18T02:11:16.722Z,3.20
2023-03-18T02:13:46.048Z,3.67
2023-03-18T02:16:28.185Z,3.90
2023-03-18T02:18:59.916Z,3.13
2023-03-18T02:21:38.601Z,3.58
2023-03-18T02:24:35.714Z,3.50
2023-03-18T02:27:20.597Z,3.45
2023-03-18T02:29:49.349Z,3.45
2023-03-18T02:32:17.144Z,3.60
2023-03-18T02:34:45.672Z,3.40
2023-03-18T02:37:13.034Z,3.03
2023-03-18T02:39:39.871Z,3.38
2023-03-18T02:42:10.958Z,3.38
2023-03-18T02:44:43.845Z,3.67
2023-03-18T02:47:15.783Z,3.80
2023-03-18T02:49:43.661Z,3.55
2023-03-18T02:52:15.028Z,3.65
2023-03-18T02:54:43.081Z,3.70
2023-03-18T02:57:09.828Z,3.45
2023-03-18T02:59:36.575Z,3.60
2023-03-18T03:02:04.250Z,3.92
2023-03-18T03:04:31.995Z,3.90
2023-03-18T03:06:59.342Z,3.80
2023-03-18T03:09:26.112Z,4.47
2023-03-18T03:11:53.065Z,4.75
2023-03-18T03:14:19.869Z,4.35
2023-03-18T03:16:47.404Z,4.57
2023-03-18T03:19:14.178Z,4.20
2023-03-18T03:21:40.903Z,4.47
2023-03-18T03:24:08.252Z,4.63
2023-03-18T03:26:36.009Z,4.30
2023-03-18T03:29:04.819Z,4.32
2023-03-18T03:31:32.160Z,4.90
2023-03-18T03:33:59.084Z,4.57
2023-03-18T03:36:25.986Z,4.40
2023-03-18T03:38:52.700Z,4.40
2023-03-18T03:41:19.673Z,4.10
2023-03-18T03:43:48.208Z,4.78
2023-03-18T03:46:15.554Z,4.75
2023-03-18T03:48:42.331Z,4.93
2023-03-18T03:51:10.721Z,4.50
2023-03-18T03:53:38.665Z,4.85
2023-03-18T03:56:07.948Z,5.30
2023-03-18T03:58:35.569Z,5.38
2023-03-18T04:01:02.892Z,4.75
2023-03-18T04:03:29.946Z,5.40
2023-03-18T04:05:57.321Z,4.95
2023-03-18T04:08:24.036Z,5.10
2023-03-18T04:10:50.810Z,4.50
2023-03-18T04:13:17.602Z,5.40
2023-03-18T04:15:45.129Z,5.00
2023-03-18T04:18:13.142Z,4.50
2023-03-18T04:20:40.264Z,4.45
2023-03-18T04:23:08.062Z,4.60
2023-03-18T04:25:35.381Z,4.75
2023-03-18T04:28:03.218Z,3.92
2023-03-18T04:30:30.923Z,4.68
2023-03-18T04:33:00.161Z,5.10
2023-03-18T04:35:28.384Z,5.15
2023-03-18T04:37:55.229Z,4.90
2023-03-18T04:40:21.943Z,5.10
2023-03-18T04:42:48.726Z,4.85
2023-03-18T04:45:16.627Z,4.80
2023-03-18T04:47:44.447Z,4.57
2023-03-18T04:50:13.362Z,4.80
2023-03-18T04:52:41.398Z,4.30
2023-03-18T04:55:11.536Z,4.80
2023-03-18T04:57:38.777Z,4.40
2023-03-18T05:00:10.992Z,4.38
2023-03-18T05:02:39.537Z,4.43
2023-03-18T05:05:08.007Z,5.00
2023-03-18T05:07:35.055Z,4.32
2023-03-18T05:10:02.731Z,4.65
2023-03-18T05:12:29.430Z,4.00
2023-03-18T05:14:56.097Z,4.38
2023-03-18T05:17:22.804Z,4.10
2023-03-18T05:19:50.908Z,4.90
2023-03-18T05:22:22.027Z,4.90
2023-03-18T05:24:49.146Z,4.65
2023-03-18T05:27:18.511Z,4.80
2023-03-18T05:29:45.757Z,4.70
2023-03-18T05:32:14.698Z,4.45
2023-03-18T05:34:42.291Z,4.20
2023-03-18T05:37:11.369Z,4.47
2023-03-18T05:39:38.770Z,4.68
2023-03-18T05:42:06.443Z,4.45
2023-03-18T05:44:34.039Z,4.32
2023-03-18T05:47:03.611Z,3.85
2023-03-18T05:49:31.908Z,4.45
2023-03-18T05:52:00.963Z,4.30
2023-03-18T05:54:28.321Z,3.83
2023-03-18T05:56:55.368Z,4.20
2023-03-18T05:59:23.913Z,4.13
2023-03-18T06:01:51.409Z,4.00
2023-03-18T06:04:19.325Z,3.50
2023-03-18T06:06:46.437Z,3.30
2023-03-18T06:09:14.232Z,4.00
2023-03-18T06:11:40.993Z,4.18
2023-03-18T06:14:09.327Z,3.42
2023-03-18T06:16:36.762Z,3.70
2023-03-18T06:19:05.539Z,3.72
2023-03-18T06:21:34.656Z,4.28
2023-03-18T06:24:02.272Z,3.92
2023-03-18T06:26:29.430Z,7.15
2023-03-18T06:28:58.479Z,5.35
2023-03-18T06:31:26.050Z,4.30
2023-03-18T06:33:54.121Z,4.05
2023-03-18T06:36:22.683Z,4.70
2023-03-18T06:38:49.500Z,4.55
2023-03-18T06:41:16.723Z,4.05
2023-03-18T06:43:44.825Z,4.35
2023-03-18T06:46:11.569Z,4.95
2023-03-18T06:48:41.568Z,4.80
2023-03-18T06:51:08.689Z,5.03
2023-03-18T06:53:39.132Z,5.53
2023-03-18T06:56:06.475Z,4.90
2023-03-18T06:58:33.574Z,4.63
2023-03-18T07:01:02.620Z,4.43
2023-03-18T07:03:29.322Z,4.50
2023-03-18T07:05:57.301Z,4.30
2023-03-18T07:08:24.400Z,4.70
2023-03-18T07:10:57.375Z,5.32
2023-03-18T07:13:24.804Z,4.10
2023-03-18T07:15:51.493Z,4.25
2023-03-18T07:18:23.156Z,4.30
2023-03-18T07:20:50.244Z,4.68
2023-03-18T07:23:17.031Z,4.30
2023-03-18T07:25:44.767Z,4.70
2023-03-18T07:28:11.647Z,4.63
2023-03-18T07:30:38.626Z,4.13
2023-03-18T07:33:05.960Z,4.63
2023-03-18T07:35:32.979Z,4.70
2023-03-18T07:38:00.820Z,3.95
2023-03-18T07:40:27.599Z,4.22
2023-03-18T07:42:54.618Z,3.80
2023-03-18T07:45:22.886Z,4.13
2023-03-18T07:47:49.677Z,3.70
2023-03-18T07:50:17.068Z,3.75
2023-03-18T07:52:45.283Z,4.05
2023-03-18T07:55:12.197Z,3.97
2023-03-18T07:57:39.369Z,4.05
2023-03-18T08:00:08.069Z,3.70
2023-03-18T08:02:36.178Z,3.63
2023-03-18T08:05:03.920Z,3.10
2023-03-18T08:07:32.345Z,3.80
2023-03-18T08:09:59.561Z,4.00
2023-03-18T08:12:26.772Z,3.35
2023-03-18T08:14:53.457Z,3.47
2023-03-18T08:17:20.574Z,3.53
2023-03-18T08:19:48.915Z,3.20
2023-03-18T08:22:16.320Z,3.50
2023-03-18T08:24:45.426Z,3.40
2023-03-18T08:27:12.268Z,3.90
2023-03-18T08:29:40.307Z,3.83
2023-03-18T08:32:07.866Z,3.03
2023-03-18T08:34:35.889Z,3.67
2023-03-18T08:37:02.908Z,3.80
2023-03-18T08:39:29.560Z,3.85
2023-03-18T08:41:56.633Z,2.95
2023-03-18T08:44:23.356Z,2.53
2023-03-18T08:46:50.017Z,3.25
2023-03-18T08:49:17.647Z,3.17
2023-03-18T08:51:45.281Z,3.45
2023-03-18T08:54:13.448Z,3.00
2023-03-18T08:56:40.259Z,3.38
2023-03-18T08:59:07.127Z,2.55
2023-03-18T09:01:35.354Z,2.88
2023-03-18T09:04:02.157Z,2.70
2023-03-18T09:06:30.045Z,2.78
2023-03-18T09:08:57.591Z,2.63
2023-03-18T09:11:24.847Z,2.38
2023-03-18T09:13:52.297Z,2.67
2023-03-18T09:16:19.070Z,2.10
2023-03-18T09:18:48.995Z,2.85
2023-03-18T09:21:15.851Z,3.30
2023-03-18T09:23:43.178Z,2.15
2023-03-18T09:26:12.904Z,2.10
2023-03-18T09:28:39.643Z,2.40
2023-03-18T09:31:06.669Z,2.33
2023-03-18T09:33:33.482Z,2.40
2023-03-18T09:36:00.265Z,2.22
2023-03-18T09:38:27.876Z,2.33
2023-03-18T09:41:12.589Z,2.33
2023-03-18T09:43:57.977Z,2.33
2023-03-18T09:46:48.771Z,2.72
2023-03-18T09:49:42.706Z,2.10
2023-03-18T09:52:25.754Z,2.00
2023-03-18T09:55:18.032Z,5.78
2023-03-18T09:57:52.017Z,2.13
2023-03-18T10:00:29.579Z,2.85
2023-03-18T10:03:11.358Z,1.85
2023-03-18T10:05:52.274Z,3.47
2023-03-18T10:08:20.208Z,1.90
2023-03-18T10:10:49.085Z,2.10
2023-03-18T10:13:15.727Z,2.05
2023-03-18T10:15:51.932Z,2.08
2023-03-18T10:18:26.483Z,2.92
2023-03-18T10:21:16.208Z,2.50
2023-03-18T10:24:04.838Z,3.08
2023-03-18T10:27:02.013Z,2.13
2023-03-18T10:29:53.205Z,2.00
2023-03-18T10:32:49.209Z,2.50
2023-03-18T10:35:35.962Z,2.10
2023-03-18T10:38:05.642Z,2.40
2023-03-18T10:40:37.313Z,2.03
2023-03-18T10:43:04.770Z,1.80
2023-03-18T10:45:38.037Z,1.77
2023-03-18T10:48:13.438Z,1.57
2023-03-18T10:50:46.358Z,2.42
2023-03-18T10:53:36.946Z,1.85
2023-03-18T10:56:17.106Z,1.55
2023-03-18T10:58:46.276Z,1.65
2023-03-18T11:01:19.026Z,2.05
2023-03-18T11:03:54.683Z,1.60
2023-03-18T11:06:46.863Z,1.65
2023-03-18T11:09:20.395Z,1.65
2023-03-18T11:11:49.266Z,1.63
2023-03-18T11:14:22.244Z,1.40
2023-03-18T11:16:50.325Z,1.80
2023-03-18T11:19:24.987Z,1.52
2023-03-18T11:22:02.175Z,1.95
2023-03-18T11:24:42.667Z,1.55
2023-03-18T11:27:18.528Z,1.55
2023-03-18T11:29:58.856Z,1.55
2023-03-18T11:32:38.159Z,1.80
2023-03-18T11:35:07.400Z,1.58
2023-03-18T11:37:40.617Z,1.58
2023-03-18T11:40:07.620Z,2.07
2023-03-18T11:42:34.355Z,1.75
2023-03-18T11:45:02.866Z,1.58
2023-03-18T11:47:32.855Z,1.80
2023-03-18T11:50:01.017Z,1.52
2023-03-18T11:52:37.178Z,1.63
2023-03-18T11:55:09.139Z,1.65
2023-03-18T11:58:01.579Z,1.75
2023-03-18T12:01:00.584Z,1.90
2023-03-18T12:03:48.694Z,1.60
2023-03-18T12:06:23.672Z,1.83
2023-03-18T12:09:11.963Z,1.55
2023-03-18T12:11:38.700Z,1.70
2023-03-18T12:14:17.483Z,1.40
2023-03-18T12:17:22.041Z,1.65
2023-03-18T12:20:13.620Z,2.13
2023-03-18T12:23:10.690Z,1.67
2023-03-18T12:25:54.753Z,1.70
2023-03-18T12:28:30.092Z,2.15
2023-03-18T12:31:14.178Z,1.63
2023-03-18T12:33:56.527Z,2.10
2023-03-18T12:36:51.638Z,1.92
2023-03-18T12:39:38.165Z,1.77
2023-03-18T12:43:02.309Z,1.80
2023-03-18T12:45:35.724Z,2.03
2023-03-18T12:48:15.081Z,1.80
2023-03-18T12:51:03.745Z,1.70
2023-03-18T12:53:44.581Z,1.90
2023-03-18T12:56:18.700Z,1.73
2023-03-18T12:58:50.516Z,1.90
2023-03-18T13:01:47.541Z,1.63
2023-03-18T13:04:28.192Z,2.17
2023-03-18T13:07:02.073Z,2.17
2023-03-18T13:09:40.449Z,1.90
2023-03-18T13:12:31.409Z,2.58
2023-03-18T13:15:00.346Z,1.92
2023-03-18T13:17:34.716Z,2.10
2023-03-18T13:20:04.517Z,1.80
2023-03-18T13:22:43.450Z,1.52
2023-03-18T13:25:56.897Z,1.63
2023-03-18T13:28:39.025Z,1.70
2023-03-18T13:31:20.972Z,1.45
2023-03-18T13:34:28.989Z,2.72
2023-03-18T13:37:34.155Z,1.77
2023-03-18T13:40:38.778Z,1.92
2023-03-18T13:43:13.504Z,1.85
2023-03-18T13:48:14.868Z,1.70
2023-03-18T13:50:45.058Z,1.60
2023-03-18T13:53:32.474Z,1.80
2023-03-18T13:55:59.111Z,1.50
2023-03-18T13:58:48.027Z,1.63
2023-03-18T14:01:32.773Z,1.70
2023-03-18T14:04:21.160Z,2.15
2023-03-18T14:07:13.608Z,4.05
2023-03-18T14:10:19.527Z,2.20
2023-03-18T14:12:49.269Z,1.80
2023-03-18T14:15:39.144Z,1.75
2023-03-18T14:18:27.296Z,2.50
2023-03-18T14:21:00.434Z,2.70
2023-03-18T14:23:41.843Z,2.00
2023-03-18T14:26:22.039Z,2.90
2023-03-18T14:28:55.166Z,3.40
2023-03-18T14:31:40.356Z,2.45
2023-03-18T14:34:19.206Z,3.03
2023-03-18T14:36:56.387Z,3.38
2023-03-18T14:39:41.461Z,2.83
2023-03-18T14:42:31.712Z,2.08
2023-03-18T14:45:19.522Z,2.05
2023-03-18T14:47:55.205Z,4.03
2023-03-18T14:50:48.207Z,3.60
2023-03-18T14:53:34.541Z,2.08
2023-03-18T14:56:03.824Z,2.38
2023-03-18T14:58:32.437Z,2.30
2023-03-18T15:01:13.735Z,2.00
2023-03-18T15:03:46.701Z,2.10
2023-03-18T15:06:20.662Z,1.75
2023-03-18T15:09:04.561Z,2.47
2023-03-18T15:11:38.281Z,2.08
2023-03-18T15:14:12.217Z,1.90
2023-03-18T15:16:39.381Z,1.83
2023-03-18T15:19:06.967Z,2.40
2023-03-18T15:21:35.313Z,2.22
2023-03-18T15:24:07.638Z,2.70
2023-03-18T15:26:39.728Z,2.10
2023-03-18T15:29:24.390Z,1.90
2023-03-18T15:31:52.980Z,1.75
2023-03-18T15:34:33.561Z,1.83
2023-03-18T15:37:03.452Z,2.17
2023-03-18T15:39:35.284Z,1.80
2023-03-18T15:42:06.778Z,1.75
2023-03-18T15:44:39.521Z,2.35
2023-03-18T15:47:30.837Z,1.75
2023-03-18T15:50:14.594Z,1.98
2023-03-18T15:52:43.007Z,1.63
2023-03-18T15:55:37.729Z,1.60
2023-03-18T16:00:34.138Z,2.35
2023-03-18T16:03:02.653Z,2.35
2023-03-18T16:05:29.513Z,2.20
2023-03-18T16:07:56.963Z,1.70
2023-03-18T16:10:26.342Z,1.75
2023-03-18T16:12:59.931Z,1.60
2023-03-18T16:15:27.983Z,1.58
2023-03-18T16:17:55.936Z,1.10
2023-03-18T16:20:26.118Z,1.20
2023-03-18T16:22:52.840Z,1.30
2023-03-18T16:25:20.354Z,1.52
2023-03-18T16:27:54.548Z,1.45
2023-03-18T16:30:27.774Z,1.50
2023-03-18T16:32:55.413Z,1.80
2023-03-18T16:35:25.466Z,1.58
2023-03-18T16:37:53.358Z,1.40
2023-03-18T16:40:26.563Z,1.60
2023-03-18T16:42:53.993Z,1.30
2023-03-18T16:45:30.446Z,1.40
2023-03-18T16:48:06.700Z,1.63
2023-03-18T16:50:39.415Z,1.60
2023-03-18T16:53:27.325Z,1.52
2023-03-18T16:55:58.430Z,1.80
2023-03-18T16:58:35.242Z,1.63
2023-03-18T17:01:06.215Z,1.90
2023-03-18T17:03:34.564Z,1.63
2023-03-18T17:06:02.050Z,1.40
2023-03-18T17:08:30.182Z,1.50
2023-03-18T17:11:01.910Z,1.77
2023-03-18T17:13:31.294Z,1.77
2023-03-18T17:15:58.012Z,1.60
2023-03-18T17:18:25.072Z,2.00
2023-03-18T17:20:52.038Z,1.90
2023-03-18T17:23:25.338Z,1.70
2023-03-18T17:25:59.227Z,1.60
2023-03-18T17:28:43.901Z,2.83
2023-03-18T17:31:12.502Z,4.97
2023-03-18T17:33:39.281Z,2.40
2023-03-18T17:36:07.188Z,2.22
2023-03-18T17:38:37.304Z,2.00
2023-03-18T17:41:12.468Z,1.70
2023-03-18T17:43:39.205Z,2.00
2023-03-18T17:46:06.224Z,1.85
2023-03-18T17:48:36.219Z,2.33
2023-03-18T17:51:07.299Z,2.65
2023-03-18T17:53:48.752Z,2.55
2023-03-18T17:56:17.260Z,2.38
2023-03-18T17:58:45.807Z,2.15
2023-03-18T18:01:22.421Z,4.03
2023-03-18T18:03:49.347Z,4.30
2023-03-18T18:06:18.551Z,6.07
2023-03-18T18:08:46.283Z,5.60
2023-03-18T18:11:26.590Z,3.67
2023-03-18T18:14:01.170Z,3.42
2023-03-18T18:16:27.969Z,7.45
2023-03-18T18:18:54.709Z,6.82
2023-03-18T18:21:24.471Z,15.43
2023-03-18T18:23:51.369Z,25.88
2023-03-18T18:26:19.956Z,20.40
2023-03-18T18:28:48.518Z,9.70
2023-03-18T18:31:20.087Z,5.78
2023-03-18T18:33:50.117Z,4.53
2023-03-18T18:36:18.014Z,3.78
2023-03-18T18:38:44.995Z,3.20
2023-03-18T18:41:11.768Z,4.03
2023-03-18T18:43:38.727Z,3.17
2023-03-18T18:46:14.764Z,4.32
2023-03-18T18:48:43.689Z,3.72
2023-03-18T18:51:16.210Z,4.25
2023-03-18T18:53:43.589Z,3.95
2023-03-18T18:56:18.587Z,4.70
2023-03-18T18:58:46.254Z,4.80
2023-03-18T19:01:13.621Z,5.35
2023-03-18T19:03:41.562Z,4.60
2023-03-18T19:06:25.667Z,4.60
2023-03-18T19:08:54.278Z,4.15
2023-03-18T19:11:21.060Z,4.85
2023-03-18T19:13:47.836Z,4.22
2023-03-18T19:16:30.194Z,4.78
2023-03-18T19:18:57.421Z,4.40
2023-03-18T19:21:24.279Z,5.90
2023-03-18T19:23:51.229Z,5.43
2023-03-18T19:26:18.654Z,5.18
2023-03-18T19:28:57.637Z,3.72
2023-03-18T19:31:27.253Z,4.00
2023-03-18T19:33:54.457Z,3.75
2023-03-18T19:36:30.947Z,3.40
2023-03-18T19:38:59.841Z,4.00
2023-03-18T19:41:27.342Z,3.60
2023-03-18T19:44:01.866Z,3.90
2023-03-18T19:46:38.976Z,4.30
2023-03-18T19:49:19.555Z,3.60
2023-03-18T19:51:46.994Z,3.45
2023-03-18T19:54:28.270Z,3.38
2023-03-18T19:57:01.085Z,3.67
2023-03-18T19:59:38.044Z,3.40
2023-03-18T20:02:16.804Z,3.30
2023-03-18T20:04:43.740Z,3.20
2023-03-18T20:07:10.738Z,3.70
2023-03-18T20:09:38.028Z,3.00
2023-03-18T20:12:06.052Z,3.25
2023-03-18T20:14:38.369Z,3.70
2023-03-18T20:17:23.876Z,3.25
2023-03-18T20:19:51.947Z,3.15
2023-03-18T20:22:31.601Z,2.75
2023-03-18T20:25:00.566Z,2.35
2023-03-18T20:27:27.764Z,3.05
2023-03-18T20:29:54.507Z,2.90
2023-03-18T20:32:21.238Z,2.53
2023-03-18T20:34:49.516Z,3.05
2023-03-18T20:37:34.988Z,3.20
2023-03-18T20:40:11.136Z,2.95
2023-03-18T20:42:37.889Z,3.30
2023-03-18T20:45:07.372Z,3.83
2023-03-18T20:47:34.060Z,3.22
2023-03-18T20:50:00.728Z,3.85
2023-03-18T20:52:31.120Z,3.33
2023-03-18T20:54:58.396Z,3.58
2023-03-18T20:57:28.515Z,3.35
2023-03-18T20:59:55.407Z,3.15
2023-03-18T21:02:36.127Z,3.30
2023-03-18T21:05:04.210Z,2.88
2023-03-18T21:07:31.142Z,2.70
2023-03-18T21:09:57.951Z,2.42
2023-03-18T21:12:28.066Z,2.40
2023-03-18T21:14:54.785Z,2.80
2023-03-18T21:17:24.305Z,2.33
2023-03-18T21:19:53.427Z,2.50
2023-03-18T21:22:23.390Z,2.60
2023-03-18T21:24:57.744Z,3.03
2023-03-18T21:27:27.145Z,3.17
2023-03-18T21:29:54.971Z,2.60
2023-03-18T21:32:31.549Z,2.80
2023-03-18T21:34:59.776Z,2.90
2023-03-18T21:37:27.756Z,2.90
2023-03-18T21:39:55.123Z,2.53
2023-03-18T21:42:25.106Z,2.88
2023-03-18T21:44:53.087Z,2.80
2023-03-18T21:47:24.658Z,3.20
2023-03-18T21:49:51.630Z,10.52
2023-03-18T21:52:19.856Z,11.65
2023-03-18T21:54:49.806Z,12.27
2023-03-18T21:57:23.031Z,14.85
2023-03-18T21:59:52.593Z,8.73
2023-03-18T22:02:30.018Z,12.50
2023-03-18T22:05:02.111Z,15.10
2023-03-18T22:07:33.068Z,13.68
2023-03-18T22:10:01.155Z,12.07
2023-03-18T22:12:33.127Z,10.18
2023-03-18T22:15:00.813Z,9.40
2023-03-18T22:17:27.454Z,8.45
2023-03-18T22:19:56.049Z,7.07
2023-03-18T22:22:25.655Z,5.80
2023-03-18T22:24:52.767Z,5.80
2023-03-18T22:27:20.920Z,3.83
2023-03-18T22:29:49.227Z,3.72
2023-03-18T22:32:27.938Z,3.50
2023-03-18T22:34:57.457Z,3.30
2023-03-18T22:37:27.251Z,3.10
2023-03-18T22:39:55.146Z,3.78
2023-03-18T22:42:24.826Z,3.50
2023-03-18T22:44:52.770Z,3.20
2023-03-18T22:47:25.333Z,3.35
2023-03-18T22:49:54.081Z,3.47
2023-03-18T22:52:28.094Z,3.70
2023-03-18T22:54:59.460Z,3.60
2023-03-18T22:57:28.118Z,3.00
2023-03-18T22:59:56.629Z,3.25
2023-03-18T23:02:26.453Z,3.42
2023-03-18T23:04:54.917Z,3.13
2023-03-18T23:07:25.528Z,3.42
2023-03-18T23:09:56.836Z,3.53
2023-03-18T23:12:27.267Z,3.30
2023-03-18T23:14:54.377Z,2.75
2023-03-18T23:17:24.226Z,2.85
2023-03-18T23:19:52.351Z,2.95
2023-03-18T23:22:26.147Z,3.13
2023-03-18T23:24:54.794Z,3.00
2023-03-18T23:27:22.782Z,2.70
2023-03-18T23:29:49.633Z,2.80
2023-03-18T23:32:17.787Z,3.50
2023-03-18T23:34:45.345Z,3.40
2023-03-18T23:37:13.997Z,3.30
2023-03-18T23:39:43.184Z,3.13
2023-03-18T23:42:14.226Z,3.38
2023-03-18T23:44:41.103Z,3.17
2023-03-18T23:47:09.361Z,3.08
2023-03-18T23:49:36.750Z,2.97
2023-03-18T23:52:09.894Z,3.67
2023-03-18T23:54:36.754Z,3.15
2023-03-18T23:57:04.591Z,3.38
2023-03-18T23:59:31.924Z,3.17
